createdAt,value
2022-10-17T00:00:17.188Z,93.80
2022-10-17T00:01:17.215Z,93.19
2022-10-17T00:02:17.188Z,93.60
2022-10-17T00:03:17.147Z,93.19
2022-10-17T00:04:17.151Z,93.84
2022-10-17T00:05:17.138Z,94.05
2022-10-17T00:06:17.144Z,93.64
2022-10-17T00:07:17.111Z,93.95
2022-10-17T00:08:17.125Z,94.56
2022-10-17T00:09:17.099Z,94.51
2022-10-17T00:10:17.080Z,94.56
2022-10-17T00:11:17.071Z,94.66
2022-10-17T00:12:17.060Z,94.56
2022-10-17T00:13:17.067Z,94.56
2022-10-17T00:14:17.036Z,94.51
2022-10-17T00:15:17.030Z,94.56
2022-10-17T00:16:18.015Z,94.61
2022-10-17T00:17:17.015Z,94.21
2022-10-17T00:18:17.019Z,94.00
2022-10-17T00:19:16.998Z,93.80
2022-10-17T00:20:17.011Z,94.10
2022-10-17T00:21:16.984Z,93.90
2022-10-17T00:22:16.958Z,94.10
2022-10-17T00:23:16.958Z,94.45
2022-10-17T00:24:16.941Z,94.56
2022-10-17T00:25:16.951Z,94.61
2022-10-17T00:26:16.907Z,95.37
2022-10-17T00:27:16.912Z,94.61
2022-10-17T00:28:16.928Z,94.61
2022-10-17T00:29:16.889Z,95.02
2022-10-17T00:30:16.884Z,94.56
2022-10-17T00:31:16.864Z,94.35
2022-10-17T00:32:16.847Z,95.26
2022-10-17T00:33:16.865Z,95.47
2022-10-17T00:34:16.846Z,94.76
2022-10-17T00:35:16.818Z,94.86
2022-10-17T00:36:16.813Z,94.66
2022-10-17T00:37:16.805Z,95.37
2022-10-17T00:38:16.799Z,94.35
2022-10-17T00:39:16.812Z,95.17
2022-10-17T00:40:16.773Z,95.17
2022-10-17T00:41:16.762Z,95.17
2022-10-17T00:42:16.746Z,95.37
2022-10-17T00:43:16.766Z,94.56
2022-10-17T00:44:16.744Z,94.45
2022-10-17T00:45:16.720Z,94.35
2022-10-17T00:46:16.707Z,95.17
2022-10-17T00:47:16.708Z,95.37
2022-10-17T00:48:21.182Z,94.86
2022-10-17T00:49:17.691Z,95.47
2022-10-17T00:50:16.666Z,95.47
2022-10-17T00:51:16.667Z,95.37
2022-10-17T00:52:16.645Z,95.26
2022-10-17T00:53:16.646Z,95.17
2022-10-17T00:54:16.651Z,95.47
2022-10-17T00:55:16.611Z,95.26
2022-10-17T00:56:16.606Z,95.26
2022-10-17T00:57:17.600Z,94.96
2022-10-17T00:58:16.590Z,94.96
2022-10-17T00:59:16.610Z,95.37
2022-10-17T01:00:16.625Z,95.26
2022-10-17T01:01:16.621Z,95.06
2022-10-17T01:02:16.551Z,94.66
2022-10-17T01:03:16.537Z,95.26
2022-10-17T01:04:16.557Z,95.26
2022-10-17T01:05:16.521Z,94.86
2022-10-17T01:06:16.516Z,94.15
2022-10-17T01:07:16.518Z,94.35
2022-10-17T01:08:16.487Z,94.45
2022-10-17T01:09:16.505Z,94.76
2022-10-17T01:10:16.513Z,94.76
2022-10-17T01:11:16.446Z,94.76
2022-10-17T01:12:16.474Z,94.56
2022-10-17T01:13:16.430Z,94.56
2022-10-17T01:14:16.428Z,94.66
2022-10-17T01:15:16.417Z,94.66
2022-10-17T01:16:16.408Z,94.40
2022-10-17T01:17:16.419Z,94.05
2022-10-17T01:18:16.378Z,93.79
2022-10-17T01:19:16.400Z,93.99
2022-10-17T01:20:16.357Z,94.20
2022-10-17T01:21:16.351Z,94.60
2022-10-17T01:22:16.344Z,94.40
2022-10-17T01:23:16.356Z,94.80
2022-10-17T01:24:16.330Z,94.20
2022-10-17T01:25:16.308Z,94.09
2022-10-17T01:26:16.308Z,94.50
2022-10-17T01:27:16.287Z,94.40
2022-10-17T01:28:16.311Z,95.31
2022-10-17T01:29:16.292Z,95.31
2022-10-17T01:30:16.281Z,95.01
2022-10-17T01:31:16.253Z,95.21
2022-10-17T01:32:16.242Z,95.41
2022-10-17T01:33:16.248Z,94.80
2022-10-17T01:34:16.216Z,95.31
2022-10-17T01:35:16.216Z,95.31
2022-10-17T01:36:16.202Z,94.80
2022-10-17T01:37:16.220Z,94.70
2022-10-17T01:38:16.184Z,94.80
2022-10-17T01:39:16.165Z,94.20
2022-10-17T01:40:16.159Z,93.99
2022-10-17T01:41:16.148Z,93.89
2022-10-17T01:42:16.158Z,93.89
2022-10-17T01:43:16.128Z,93.79
2022-10-17T01:44:16.118Z,93.79
2022-10-17T01:45:16.108Z,94.24
2022-10-17T01:46:16.098Z,94.09
2022-10-17T01:47:16.094Z,94.64
2022-10-17T01:48:16.101Z,94.60
2022-10-17T01:49:16.067Z,94.85
2022-10-17T01:50:16.069Z,95.36
2022-10-17T01:51:16.053Z,95.46
2022-10-17T01:52:16.027Z,95.36
2022-10-17T01:53:16.048Z,95.05
2022-10-17T01:54:16.007Z,95.36
2022-10-17T01:55:16.022Z,95.46
2022-10-17T01:56:15.993Z,95.15
2022-10-17T01:57:15.979Z,95.46
2022-10-17T01:58:15.972Z,95.56
2022-10-17T01:59:15.954Z,95.15
2022-10-17T02:00:15.968Z,95.15
2022-10-17T02:01:15.977Z,95.05
2022-10-17T02:02:15.932Z,95.40
2022-10-17T02:03:15.924Z,95.15
2022-10-17T02:04:15.910Z,95.15
2022-10-17T02:05:15.915Z,94.74
2022-10-17T02:06:15.900Z,95.56
2022-10-17T02:07:15.878Z,94.44
2022-10-17T02:08:15.898Z,94.89
2022-10-17T02:09:15.865Z,95.40
2022-10-17T02:10:15.877Z,95.50
2022-10-17T02:11:15.846Z,95.20
2022-10-17T02:12:15.855Z,94.69
2022-10-17T02:13:15.818Z,94.89
2022-10-17T02:14:15.836Z,94.59
2022-10-17T02:15:15.802Z,95.00
2022-10-17T02:16:15.785Z,94.69
2022-10-17T02:17:15.802Z,94.08
2022-10-17T02:18:15.784Z,94.18
2022-10-17T02:19:15.757Z,93.98
2022-10-17T02:20:15.747Z,93.37
2022-10-17T02:21:15.738Z,93.77
2022-10-17T02:22:15.738Z,94.02
2022-10-17T02:23:15.772Z,93.82
2022-10-17T02:24:15.711Z,93.57
2022-10-17T02:25:15.710Z,93.62
2022-10-17T02:26:15.692Z,94.23
2022-10-17T02:27:15.678Z,93.71
2022-10-17T02:28:15.691Z,93.82
2022-10-17T02:29:15.666Z,93.62
2022-10-17T02:30:15.647Z,93.92
2022-10-17T02:31:15.648Z,94.02
2022-10-17T02:32:15.638Z,94.43
2022-10-17T02:33:15.651Z,95.08
2022-10-17T02:34:15.608Z,94.73
2022-10-17T02:35:15.604Z,94.78
2022-10-17T02:36:15.596Z,94.23
2022-10-17T02:37:15.592Z,94.17
2022-10-17T02:38:15.577Z,94.57
2022-10-17T02:39:16.590Z,94.88
2022-10-17T02:40:15.568Z,94.68
2022-10-17T02:41:16.626Z,94.32
2022-10-17T02:42:20.274Z,94.37
2022-10-17T02:43:47.425Z,94.47
2022-10-17T02:44:15.504Z,93.86
2022-10-17T02:45:16.518Z,94.47
2022-10-17T02:46:15.495Z,94.17
2022-10-17T02:47:15.485Z,94.27
2022-10-17T02:48:15.473Z,93.55
2022-10-17T02:49:15.460Z,93.86
2022-10-17T02:50:15.475Z,94.17
2022-10-17T02:51:15.472Z,94.27
2022-10-17T02:52:15.433Z,94.92
2022-10-17T02:53:15.416Z,95.08
2022-10-17T02:54:15.421Z,95.29
2022-10-17T02:55:15.425Z,94.68
2022-10-17T02:56:15.394Z,94.57
2022-10-17T02:57:15.381Z,94.21
2022-10-17T02:58:15.367Z,94.07
2022-10-17T02:59:15.360Z,94.07
2022-10-17T03:00:15.366Z,94.17
2022-10-17T03:01:15.404Z,93.76
2022-10-17T03:02:15.337Z,94.57
2022-10-17T03:03:15.320Z,94.17
2022-10-17T03:04:15.312Z,93.76
2022-10-17T03:05:15.304Z,94.37
2022-10-17T03:06:15.315Z,94.17
2022-10-17T03:07:15.277Z,94.17
2022-10-17T03:08:15.275Z,93.66
2022-10-17T03:09:15.286Z,94.01
2022-10-17T03:10:15.283Z,94.72
2022-10-17T03:11:15.228Z,93.55
2022-10-17T03:12:16.234Z,93.76
2022-10-17T03:13:15.216Z,94.07
2022-10-17T03:14:15.247Z,94.21
2022-10-17T03:15:15.223Z,94.31
2022-10-17T03:16:15.193Z,94.37
2022-10-17T03:17:15.183Z,94.31
2022-10-17T03:18:15.178Z,93.90
2022-10-17T03:19:15.162Z,94.31
2022-10-17T03:20:15.172Z,94.52
2022-10-17T03:21:15.143Z,94.37
2022-10-17T03:22:15.148Z,94.31
2022-10-17T03:23:15.124Z,93.60
2022-10-17T03:24:15.121Z,94.11
2022-10-17T03:25:15.105Z,94.52
2022-10-17T03:26:15.096Z,94.01
2022-10-17T03:27:15.112Z,94.01
2022-10-17T03:28:15.080Z,94.52
2022-10-17T03:29:15.093Z,94.26
2022-10-17T03:30:15.060Z,94.62
2022-10-17T03:31:15.048Z,94.82
2022-10-17T03:32:15.099Z,93.90
2022-10-17T03:33:15.023Z,94.11
2022-10-17T03:34:15.016Z,94.21
2022-10-17T03:35:15.265Z,93.90
2022-10-17T03:36:15.012Z,92.99
2022-10-17T03:37:15.002Z,93.70
2022-10-17T03:38:14.982Z,94.01
2022-10-17T03:39:14.957Z,94.31
2022-10-17T03:40:14.979Z,94.42
2022-10-17T03:41:14.951Z,94.52
2022-10-17T03:42:14.955Z,94.42
2022-10-17T03:43:14.944Z,94.11
2022-10-17T03:44:14.917Z,94.52
2022-10-17T03:45:14.909Z,94.52
2022-10-17T03:46:14.957Z,94.21
2022-10-17T03:47:14.893Z,94.72
2022-10-17T03:48:14.891Z,93.90
2022-10-17T03:49:14.882Z,93.40
2022-10-17T03:50:14.897Z,93.29
2022-10-17T03:51:14.859Z,94.72
2022-10-17T03:52:14.851Z,94.11
2022-10-17T03:53:14.843Z,94.01
2022-10-17T03:54:14.854Z,93.80
2022-10-17T03:55:14.837Z,94.01
2022-10-17T03:56:14.828Z,93.60
2022-10-17T03:57:14.802Z,93.09
2022-10-17T03:58:14.784Z,93.60
2022-10-17T03:59:14.771Z,93.29
2022-10-17T04:00:14.802Z,93.09
2022-10-17T04:01:14.803Z,92.84
2022-10-17T04:02:14.740Z,93.80
2022-10-17T04:03:17.171Z,92.99
2022-10-17T04:04:15.757Z,92.99
2022-10-17T04:05:14.720Z,93.19
2022-10-17T04:06:14.710Z,93.50
2022-10-17T04:07:14.751Z,93.09
2022-10-17T04:08:14.696Z,93.85
2022-10-17T04:09:14.715Z,93.60
2022-10-17T04:10:14.665Z,94.26
2022-10-17T04:11:14.657Z,94.35
2022-10-17T04:12:14.654Z,94.15
2022-10-17T04:13:14.640Z,94.15
2022-10-17T04:14:14.640Z,94.35
2022-10-17T04:15:14.618Z,94.15
2022-10-17T04:16:14.608Z,93.95
2022-10-17T04:17:14.593Z,93.74
2022-10-17T04:18:14.588Z,94.62
2022-10-17T04:19:14.610Z,94.35
2022-10-17T04:20:14.569Z,94.26
2022-10-17T04:21:14.559Z,93.64
2022-10-17T04:22:14.557Z,94.05
2022-10-17T04:23:14.540Z,93.54
2022-10-17T04:24:14.553Z,93.74
2022-10-17T04:25:14.515Z,93.74
2022-10-17T04:26:14.508Z,94.05
2022-10-17T04:27:14.502Z,94.26
2022-10-17T04:28:14.481Z,93.95
2022-10-17T04:29:14.486Z,94.35
2022-10-17T04:30:14.488Z,94.46
2022-10-17T04:31:14.474Z,93.95
2022-10-17T04:32:14.449Z,93.64
2022-10-17T04:33:14.445Z,94.35
2022-10-17T04:34:14.427Z,93.85
2022-10-17T04:35:14.431Z,94.15
2022-10-17T04:36:14.521Z,93.19
2022-10-17T04:37:14.392Z,94.05
2022-10-17T04:38:14.441Z,94.35
2022-10-17T04:40:14.691Z,94.56
2022-10-17T04:41:14.367Z,93.44
2022-10-17T04:42:14.349Z,94.15
2022-10-17T04:43:14.360Z,94.15
2022-10-17T04:44:14.356Z,94.35
2022-10-17T04:45:14.319Z,94.35
2022-10-17T04:46:14.313Z,94.35
2022-10-17T04:47:14.307Z,94.15
2022-10-17T04:48:14.280Z,94.15
2022-10-17T04:49:14.298Z,93.95
2022-10-17T04:50:14.272Z,93.85
2022-10-17T04:51:14.271Z,93.95
2022-10-17T04:52:14.289Z,94.05
2022-10-17T04:53:14.250Z,93.74
2022-10-17T04:54:14.241Z,93.13
2022-10-17T04:55:14.223Z,93.69
2022-10-17T04:56:14.263Z,93.79
2022-10-17T04:57:14.225Z,93.28
2022-10-17T04:58:14.179Z,93.38
2022-10-17T04:59:14.189Z,93.89
2022-10-17T05:00:14.187Z,94.40
2022-10-17T05:01:14.267Z,94.30
2022-10-17T05:02:14.151Z,94.20
2022-10-17T05:03:14.175Z,94.40
2022-10-17T05:04:14.139Z,93.59
2022-10-17T05:05:14.156Z,94.30
2022-10-17T05:06:14.114Z,93.89
2022-10-17T05:07:14.094Z,94.20
2022-10-17T05:08:14.094Z,94.30
2022-10-17T05:09:14.089Z,94.30
2022-10-17T05:10:14.098Z,94.24
2022-10-17T05:11:14.085Z,94.04
2022-10-17T05:12:14.072Z,94.45
2022-10-17T05:13:14.134Z,95.36
2022-10-17T05:14:15.022Z,95.77
2022-10-17T05:15:14.019Z,95.47
2022-10-17T05:16:14.049Z,95.67
2022-10-17T05:17:14.021Z,95.87
2022-10-17T05:18:13.990Z,95.61
2022-10-17T05:19:14.623Z,95.51
2022-10-17T05:20:13.981Z,95.51
2022-10-17T05:21:13.956Z,95.51
2022-10-17T05:22:13.979Z,95.61
2022-10-17T05:23:13.957Z,95.81
2022-10-17T05:24:13.934Z,95.61
2022-10-17T05:25:13.919Z,95.51
2022-10-17T05:26:13.909Z,95.72
2022-10-17T05:27:13.902Z,95.41
2022-10-17T05:28:13.927Z,94.90
2022-10-17T05:29:13.884Z,95.00
2022-10-17T05:30:13.869Z,94.95
2022-10-17T05:31:13.869Z,95.31
2022-10-17T05:32:13.863Z,95.72
2022-10-17T05:33:13.858Z,95.10
2022-10-17T05:34:14.108Z,94.90
2022-10-17T05:35:13.814Z,94.45
2022-10-17T05:36:13.809Z,93.93
2022-10-17T05:37:13.800Z,94.95
2022-10-17T05:38:13.816Z,94.75
2022-10-17T05:39:13.809Z,94.24
2022-10-17T05:40:13.756Z,94.24
2022-10-17T05:41:13.774Z,94.45
2022-10-17T05:42:13.757Z,94.24
2022-10-17T05:43:13.733Z,94.24
2022-10-17T05:44:13.745Z,93.63
2022-10-17T05:45:13.722Z,93.79
2022-10-17T05:46:13.715Z,93.79
2022-10-17T05:47:13.698Z,93.52
2022-10-17T05:48:13.691Z,93.69
2022-10-17T05:49:19.785Z,92.97
2022-10-17T05:50:15.679Z,92.97
2022-10-17T05:51:13.660Z,93.38
2022-10-17T05:52:13.648Z,92.77
2022-10-17T05:53:13.643Z,92.77
2022-10-17T05:54:13.677Z,93.18
2022-10-17T05:55:13.615Z,92.67
2022-10-17T05:56:13.636Z,92.87
2022-10-17T05:57:13.604Z,92.77
2022-10-17T05:58:21.800Z,92.77
2022-10-17T05:59:14.588Z,92.67
2022-10-17T06:00:13.589Z,92.57
2022-10-17T06:01:13.593Z,92.46
2022-10-17T06:02:13.653Z,92.97
2022-10-17T06:03:14.542Z,92.77
2022-10-17T06:04:14.528Z,93.18
2022-10-17T06:05:13.530Z,92.87
2022-10-17T06:06:13.535Z,93.07
2022-10-17T06:07:13.520Z,92.77
2022-10-17T06:08:13.493Z,92.77
2022-10-17T06:09:13.551Z,92.97
2022-10-17T06:10:13.468Z,92.67
2022-10-17T06:11:13.531Z,92.36
2022-10-17T06:12:13.459Z,92.36
2022-10-17T06:13:13.440Z,92.36
2022-10-17T06:14:13.430Z,92.36
2022-10-17T06:15:13.421Z,92.46
2022-10-17T06:16:13.417Z,92.61
2022-10-17T06:17:15.963Z,92.77
2022-10-17T06:18:14.408Z,92.81
2022-10-17T06:19:13.386Z,93.43
2022-10-17T06:20:13.376Z,93.69
2022-10-17T06:21:13.364Z,93.18
2022-10-17T06:22:13.374Z,93.38
2022-10-17T06:23:13.339Z,92.97
2022-10-17T06:24:13.344Z,93.18
2022-10-17T06:25:13.377Z,93.38
2022-10-17T06:26:13.399Z,93.38
2022-10-17T06:27:13.298Z,93.33
2022-10-17T06:28:13.297Z,92.83
2022-10-17T06:29:13.279Z,92.42
2022-10-17T06:30:13.333Z,92.38
2022-10-17T06:31:13.270Z,92.01
2022-10-17T06:32:15.066Z,92.01
2022-10-17T06:33:13.247Z,91.97
2022-10-17T06:34:13.230Z,91.87
2022-10-17T06:35:13.259Z,92.18
2022-10-17T06:36:13.319Z,91.66
2022-10-17T06:37:13.214Z,91.77
2022-10-17T06:38:13.198Z,91.56
2022-10-17T06:39:13.213Z,91.46
2022-10-17T06:40:13.175Z,91.01
2022-10-17T06:41:13.179Z,90.56
2022-10-17T06:42:13.163Z,90.66
2022-10-17T06:43:13.186Z,90.25
2022-10-17T06:44:13.139Z,89.75
2022-10-17T06:45:13.130Z,89.00
2022-10-17T06:46:13.121Z,88.89
2022-10-17T06:47:14.334Z,88.95
2022-10-17T06:48:13.131Z,88.34
2022-10-17T06:49:13.082Z,88.34
2022-10-17T06:50:13.082Z,88.85
2022-10-17T06:51:13.072Z,88.65
2022-10-17T06:52:13.064Z,88.24
2022-10-17T06:53:13.047Z,89.15
2022-10-17T06:54:13.059Z,89.05
2022-10-17T06:55:14.140Z,88.95
2022-10-17T06:56:13.032Z,89.15
2022-10-17T06:57:12.999Z,88.81
2022-10-17T06:58:12.996Z,88.26
2022-10-17T06:59:13.001Z,87.40
2022-10-17T07:00:12.969Z,86.49
2022-10-17T07:01:12.973Z,86.15
2022-10-17T07:02:12.950Z,85.98
2022-10-17T07:03:12.946Z,85.64
2022-10-17T07:04:12.982Z,86.35
2022-10-17T07:05:12.925Z,86.10
2022-10-17T07:06:12.909Z,84.70
2022-10-17T07:07:12.899Z,84.16
2022-10-17T07:08:12.883Z,82.50
2022-10-17T07:09:12.868Z,81.96
2022-10-17T07:10:12.889Z,80.57
2022-10-17T07:11:12.863Z,79.11
2022-10-17T07:12:12.882Z,78.57
2022-10-17T07:13:12.837Z,77.39
2022-10-17T07:14:12.823Z,77.69
2022-10-17T07:15:12.806Z,77.45
2022-10-17T07:16:12.813Z,75.54
2022-10-17T07:17:12.803Z,74.90
2022-10-17T07:18:12.793Z,74.86
2022-10-17T07:19:12.774Z,74.29
2022-10-17T07:20:12.795Z,75.50
2022-10-17T07:21:12.765Z,75.63
2022-10-17T07:22:12.747Z,76.18
2022-10-17T07:23:12.738Z,75.91
2022-10-17T07:24:12.719Z,76.95
2022-10-17T07:25:13.745Z,77.62
2022-10-17T07:26:12.729Z,77.42
2022-10-17T07:27:12.699Z,76.98
2022-10-17T07:28:12.680Z,75.16
2022-10-17T07:29:12.674Z,76.07
2022-10-17T07:30:12.676Z,75.84
2022-10-17T07:31:12.658Z,75.80
2022-10-17T07:32:12.647Z,75.20
2022-10-17T07:33:12.631Z,75.60
2022-10-17T07:34:12.622Z,75.96
2022-10-17T07:35:12.610Z,74.12
2022-10-17T07:36:12.621Z,73.78
2022-10-17T07:37:12.606Z,74.79
2022-10-17T07:38:12.619Z,73.00
2022-10-17T07:39:12.573Z,71.70
2022-10-17T07:40:12.619Z,71.09
2022-10-17T07:41:13.724Z,69.99
2022-10-17T07:42:12.544Z,71.36
2022-10-17T07:43:12.558Z,73.14
2022-10-17T07:44:12.513Z,74.79
2022-10-17T07:45:12.513Z,75.30
2022-10-17T07:46:12.513Z,75.80
2022-10-17T07:47:12.488Z,75.67
2022-10-17T07:48:12.500Z,73.21
2022-10-17T07:49:12.460Z,73.04
2022-10-17T07:50:13.533Z,72.87
2022-10-17T07:51:12.457Z,69.92
2022-10-17T07:52:12.457Z,70.36
2022-10-17T07:53:12.428Z,68.92
2022-10-17T07:54:12.404Z,67.05
2022-10-17T07:55:12.407Z,67.85
2022-10-17T07:56:12.398Z,68.72
2022-10-17T07:57:12.412Z,68.12
2022-10-17T07:58:12.376Z,68.95
2022-10-17T07:59:12.378Z,68.76
2022-10-17T08:00:12.352Z,68.08
2022-10-17T08:01:14.961Z,68.59
2022-10-17T08:02:12.353Z,70.19
2022-10-17T08:03:12.337Z,69.06
2022-10-17T08:04:12.336Z,68.05
2022-10-17T08:05:12.305Z,69.46
2022-10-17T08:06:12.316Z,68.92
2022-10-17T08:07:20.946Z,69.02
2022-10-17T08:08:13.300Z,70.59
2022-10-17T08:09:12.259Z,71.40
2022-10-17T08:10:13.258Z,72.20
2022-10-17T08:11:12.271Z,71.73
2022-10-17T08:12:12.244Z,71.90
2022-10-17T08:13:12.230Z,72.44
2022-10-17T08:14:12.209Z,72.67
2022-10-17T08:15:12.203Z,72.67
2022-10-17T08:16:12.222Z,73.31
2022-10-17T08:17:12.203Z,74.85
2022-10-17T08:18:12.187Z,75.66
2022-10-17T08:19:12.190Z,75.42
2022-10-17T08:20:12.166Z,74.41
2022-10-17T08:21:12.182Z,73.51
2022-10-17T08:22:12.146Z,73.58
2022-10-17T08:23:12.152Z,74.04
2022-10-17T08:24:12.129Z,73.34
2022-10-17T08:25:12.115Z,72.84
2022-10-17T08:26:12.113Z,73.71
2022-10-17T08:27:12.120Z,73.87
2022-10-17T08:28:12.116Z,72.67
2022-10-17T08:29:12.153Z,72.97
2022-10-17T08:30:12.066Z,73.33
2022-10-17T08:31:12.047Z,73.13
2022-10-17T08:32:12.051Z,73.17
2022-10-17T08:33:12.038Z,73.07
2022-10-17T08:34:12.036Z,72.77
2022-10-17T08:35:12.019Z,73.27
2022-10-17T08:36:12.046Z,74.07
2022-10-17T08:37:11.997Z,74.88
2022-10-17T08:38:13.356Z,73.64
2022-10-17T08:39:11.985Z,73.87
2022-10-17T08:40:11.964Z,75.01
2022-10-17T08:41:11.971Z,74.61
2022-10-17T08:42:11.941Z,73.81
2022-10-17T08:43:43.843Z,75.11
2022-10-17T08:44:11.929Z,74.04
2022-10-17T08:45:11.930Z,73.16
2022-10-17T08:46:11.965Z,71.86
2022-10-17T08:47:11.890Z,71.43
2022-10-17T08:48:11.879Z,71.03
2022-10-17T08:49:12.210Z,71.23
2022-10-17T08:50:11.898Z,71.19
2022-10-17T08:51:11.881Z,71.59
2022-10-17T08:52:11.848Z,70.76
2022-10-17T08:53:11.845Z,70.76
2022-10-17T08:54:11.833Z,69.86
2022-10-17T08:55:11.878Z,71.06
2022-10-17T08:56:19.493Z,70.66
2022-10-17T08:57:13.797Z,70.66
2022-10-17T08:58:11.792Z,70.56
2022-10-17T08:59:11.782Z,70.32
2022-10-17T09:00:11.798Z,70.53
2022-10-17T09:01:13.187Z,71.62
2022-10-17T09:02:12.750Z,69.99
2022-10-17T09:03:11.797Z,70.09
2022-10-17T09:04:11.774Z,70.19
2022-10-17T09:05:11.742Z,69.96
2022-10-17T09:06:11.719Z,69.62
2022-10-17T09:07:11.724Z,68.59
2022-10-17T09:08:11.692Z,68.40
2022-10-17T09:09:11.690Z,68.70
2022-10-17T09:10:11.685Z,68.36
2022-10-17T09:11:11.665Z,68.36
2022-10-17T09:12:11.680Z,68.40
2022-10-17T09:13:11.652Z,70.42
2022-10-17T09:14:11.632Z,70.09
2022-10-17T09:15:11.628Z,69.59
2022-10-17T09:16:11.626Z,69.56
2022-10-17T09:17:11.643Z,70.09
2022-10-17T09:18:11.586Z,69.76
2022-10-17T09:19:11.588Z,69.76
2022-10-17T09:20:11.572Z,70.03
2022-10-17T09:21:11.558Z,70.92
2022-10-17T09:22:11.573Z,69.89
2022-10-17T09:23:11.567Z,69.82
2022-10-17T09:24:15.919Z,68.73
2022-10-17T09:25:12.554Z,68.96
2022-10-17T09:26:11.514Z,68.96
2022-10-17T09:27:11.508Z,69.66
2022-10-17T09:28:11.498Z,68.76
2022-10-17T09:29:11.481Z,69.73
2022-10-17T09:30:21.352Z,68.53
2022-10-17T09:31:11.475Z,68.99
2022-10-17T09:32:11.498Z,68.33
2022-10-17T09:33:23.076Z,68.63
2022-10-17T09:34:13.439Z,68.83
2022-10-17T09:35:11.450Z,66.83
2022-10-17T09:36:11.452Z,67.43
2022-10-17T09:37:11.433Z,67.33
2022-10-17T09:38:11.390Z,67.73
2022-10-17T09:39:11.417Z,66.63
2022-10-17T09:40:11.377Z,67.90
2022-10-17T09:41:32.128Z,66.60
2022-10-17T09:42:12.361Z,66.53
2022-10-17T09:43:11.349Z,67.63
2022-10-17T09:44:11.362Z,67.23
2022-10-17T09:45:11.327Z,66.63
2022-10-17T09:46:11.320Z,67.23
2022-10-17T09:47:11.309Z,66.73
2022-10-17T09:48:11.322Z,66.83
2022-10-17T09:49:13.497Z,66.53
2022-10-17T09:50:12.288Z,66.63
2022-10-17T09:51:21.706Z,66.63
2022-10-17T09:52:13.277Z,67.33
2022-10-17T09:53:11.252Z,66.70
2022-10-17T09:54:11.244Z,66.27
2022-10-17T09:55:11.241Z,66.57
2022-10-17T09:56:11.251Z,66.57
2022-10-17T09:57:11.209Z,65.64
2022-10-17T09:58:11.200Z,65.34
2022-10-17T09:59:13.742Z,65.84
2022-10-17T10:00:12.207Z,65.54
2022-10-17T10:01:11.282Z,64.94
2022-10-17T10:02:11.159Z,64.51
2022-10-17T10:03:11.175Z,64.72
2022-10-17T10:04:11.152Z,63.52
2022-10-17T10:05:11.132Z,64.72
2022-10-17T10:06:11.123Z,63.62
2022-10-17T10:07:11.122Z,63.02
2022-10-17T10:08:11.126Z,63.92
2022-10-17T10:09:11.141Z,63.72
2022-10-17T10:10:11.070Z,64.12
2022-10-17T10:11:13.782Z,64.12
2022-10-17T10:12:12.054Z,64.18
2022-10-17T10:13:11.053Z,63.09
2022-10-17T10:14:11.035Z,62.59
2022-10-17T10:15:11.031Z,62.69
2022-10-17T10:16:11.011Z,62.79
2022-10-17T10:17:11.040Z,62.99
2022-10-17T10:18:10.992Z,62.59
2022-10-17T10:19:10.980Z,61.60
2022-10-17T10:20:10.980Z,63.19
2022-10-17T10:21:10.992Z,60.87
2022-10-17T10:22:10.973Z,60.87
2022-10-17T10:23:10.950Z,60.50
2022-10-17T10:24:10.955Z,59.94
2022-10-17T10:25:10.919Z,60.03
2022-10-17T10:26:12.442Z,60.50
2022-10-17T10:27:11.919Z,59.70
2022-10-17T10:28:10.920Z,60.11
2022-10-17T10:29:11.030Z,60.90
2022-10-17T10:30:10.875Z,59.18
2022-10-17T10:31:10.868Z,60.97
2022-10-17T10:32:10.851Z,59.65
2022-10-17T10:33:10.858Z,59.45
2022-10-17T10:34:10.835Z,58.73
2022-10-17T10:35:10.859Z,58.56
2022-10-17T10:36:10.823Z,58.92
2022-10-17T10:37:13.458Z,58.23
2022-10-17T10:38:10.803Z,58.95
2022-10-17T10:39:10.780Z,58.16
2022-10-17T10:40:10.801Z,58.86
2022-10-17T10:41:10.771Z,58.95
2022-10-17T10:42:10.782Z,58.65
2022-10-17T10:43:10.761Z,59.05
2022-10-17T10:44:10.744Z,58.26
2022-10-17T10:45:19.106Z,59.65
2022-10-17T10:46:12.740Z,57.56
2022-10-17T10:47:10.702Z,57.96
2022-10-17T10:48:10.691Z,59.05
2022-10-17T10:49:10.693Z,59.05
2022-10-17T10:50:10.739Z,58.26
2022-10-17T10:51:10.671Z,57.46
2022-10-17T10:52:10.651Z,57.66
2022-10-17T10:53:10.659Z,57.69
2022-10-17T10:54:10.654Z,57.19
2022-10-17T10:55:10.650Z,58.18
2022-10-17T10:56:10.623Z,58.06
2022-10-17T10:57:10.624Z,57.86
2022-10-17T10:58:10.607Z,57.39
2022-10-17T10:59:10.600Z,58.36
2022-10-17T11:00:10.618Z,57.46
2022-10-17T11:01:10.628Z,57.86
2022-10-17T11:02:10.564Z,57.26
2022-10-17T11:03:12.602Z,56.87
2022-10-17T11:04:11.531Z,56.96
2022-10-17T11:05:10.535Z,57.86
2022-10-17T11:06:10.551Z,57.36
2022-10-17T11:07:10.518Z,57.64
2022-10-17T11:08:10.525Z,58.23
2022-10-17T11:09:10.507Z,56.94
2022-10-17T11:10:10.470Z,57.04
2022-10-17T11:11:10.470Z,57.34
2022-10-17T11:12:10.481Z,57.24
2022-10-17T11:13:10.450Z,57.73
2022-10-17T11:14:13.002Z,57.93
2022-10-17T11:15:10.445Z,58.06
2022-10-17T11:16:10.454Z,58.16
2022-10-17T11:17:10.408Z,57.93
2022-10-17T11:18:10.418Z,56.94
2022-10-17T11:19:10.405Z,57.73
2022-10-17T11:20:11.367Z,57.53
2022-10-17T11:21:10.374Z,57.34
2022-10-17T11:22:10.370Z,56.94
2022-10-17T11:23:10.363Z,57.43
2022-10-17T11:24:10.345Z,57.83
2022-10-17T11:25:10.325Z,56.74
2022-10-17T11:26:10.329Z,56.34
2022-10-17T11:27:10.317Z,56.84
2022-10-17T11:28:10.321Z,57.34
2022-10-17T11:29:10.372Z,56.64
2022-10-17T11:30:10.290Z,56.81
2022-10-17T11:31:10.273Z,56.21
2022-10-17T11:32:10.260Z,56.71
2022-10-17T11:33:10.269Z,54.93
2022-10-17T11:34:10.241Z,56.04
2022-10-17T11:35:10.242Z,55.55
2022-10-17T11:36:10.241Z,56.84
2022-10-17T11:37:10.217Z,56.81
2022-10-17T11:38:10.208Z,56.61
2022-10-17T11:39:10.208Z,56.71
2022-10-17T11:40:10.192Z,56.32
2022-10-17T11:41:10.191Z,55.72
2022-10-17T11:42:10.160Z,55.02
2022-10-17T11:43:10.218Z,55.42
2022-10-17T11:44:10.140Z,55.32
2022-10-17T11:45:10.150Z,54.72
2022-10-17T11:46:10.116Z,55.72
2022-10-17T11:47:10.119Z,55.52
2022-10-17T11:48:10.139Z,54.82
2022-10-17T11:49:10.141Z,54.82
2022-10-17T11:52:11.109Z,56.12
2022-10-17T11:53:10.089Z,56.32
2022-10-17T11:54:10.055Z,56.09
2022-10-17T11:55:10.048Z,54.93
2022-10-17T11:56:10.042Z,54.93
2022-10-17T11:57:13.948Z,55.89
2022-10-17T11:58:10.042Z,55.89
2022-10-17T11:59:10.027Z,54.63
2022-10-17T12:00:09.982Z,55.72
2022-10-17T12:01:09.984Z,55.40
2022-10-17T12:02:09.972Z,55.59
2022-10-17T12:03:09.985Z,56.76
2022-10-17T12:04:09.994Z,54.87
2022-10-17T12:05:09.929Z,53.78
2022-10-17T12:06:09.926Z,54.08
2022-10-17T12:07:09.946Z,53.91
2022-10-17T12:08:09.908Z,53.78
2022-10-17T12:09:09.926Z,55.40
2022-10-17T12:10:09.906Z,54.87
2022-10-17T12:11:09.872Z,54.17
2022-10-17T12:12:09.868Z,54.38
2022-10-17T12:13:09.874Z,54.40
2022-10-17T12:14:09.930Z,54.60
2022-10-17T12:15:10.261Z,55.47
2022-10-17T12:16:11.027Z,54.47
2022-10-17T12:17:09.857Z,54.30
2022-10-17T12:18:09.819Z,54.87
2022-10-17T12:19:09.808Z,54.00
2022-10-17T12:20:09.827Z,54.08
2022-10-17T12:21:09.778Z,53.91
2022-10-17T12:22:09.775Z,54.17
2022-10-17T12:23:09.775Z,54.30
2022-10-17T12:24:09.755Z,54.70
2022-10-17T12:25:09.784Z,54.30
2022-10-17T12:26:09.762Z,54.90
2022-10-17T12:27:09.737Z,55.47
2022-10-17T12:28:09.719Z,54.17
2022-10-17T12:29:09.708Z,53.78
2022-10-17T12:30:09.691Z,54.17
2022-10-17T12:31:09.715Z,54.38
2022-10-17T12:32:09.678Z,53.78
2022-10-17T12:33:09.669Z,54.68
2022-10-17T12:34:09.688Z,53.98
2022-10-17T12:35:09.642Z,54.47
2022-10-17T12:36:09.682Z,54.17
2022-10-17T12:37:09.620Z,54.38
2022-10-17T12:38:09.618Z,53.78
2022-10-17T12:39:09.617Z,53.70
2022-10-17T12:40:09.590Z,54.21
2022-10-17T12:41:11.564Z,54.17
2022-10-17T12:42:09.576Z,54.10
2022-10-17T12:43:09.569Z,53.78
2022-10-17T12:44:09.575Z,54.38
2022-10-17T12:45:09.549Z,53.78
2022-10-17T12:46:09.533Z,53.88
2022-10-17T12:47:09.566Z,54.87
2022-10-17T12:48:09.519Z,55.47
2022-10-17T12:49:09.570Z,54.87
2022-10-17T12:50:09.520Z,54.08
2022-10-17T12:51:34.087Z,54.57
2022-10-17T12:52:11.549Z,55.57
2022-10-17T12:53:09.469Z,54.60
2022-10-17T12:54:09.455Z,55.59
2022-10-17T12:55:13.795Z,54.80